createdAt,value
2023-04-23T00:01:42.730Z,13.70
2023-04-23T00:04:09.503Z,13.20
2023-04-23T00:06:36.557Z,13.77
2023-04-23T00:09:04.110Z,14.02
2023-04-23T00:11:30.782Z,13.43
2023-04-23T00:13:57.477Z,13.07
2023-04-23T00:16:24.861Z,14.75
2023-04-23T00:18:51.477Z,14.43
2023-04-23T00:21:18.030Z,12.60
2023-04-23T00:23:44.547Z,13.05
2023-04-23T00:26:11.045Z,13.10
2023-04-23T00:28:37.569Z,15.27
2023-04-23T00:31:04.093Z,13.77
2023-04-23T00:33:30.648Z,14.30
2023-04-23T00:35:57.166Z,14.63
2023-04-23T00:38:23.862Z,13.25
2023-04-23T00:40:50.642Z,13.50
2023-04-23T00:43:17.794Z,13.75
2023-04-23T00:45:44.605Z,13.13
2023-04-23T00:48:11.310Z,12.57
2023-04-23T00:50:37.844Z,15.00
2023-04-23T00:53:04.474Z,14.23
2023-04-23T00:55:31.031Z,12.80
2023-04-23T00:57:57.530Z,13.32
2023-04-23T01:00:24.190Z,13.43
2023-04-23T01:02:53.134Z,12.07
2023-04-23T01:05:20.348Z,13.05
2023-04-23T01:07:47.108Z,13.65
2023-04-23T01:10:13.758Z,12.93
2023-04-23T01:12:40.380Z,13.15
2023-04-23T01:15:07.805Z,12.75
2023-04-23T01:17:34.523Z,12.48
2023-04-23T01:20:01.204Z,12.43
2023-04-23T01:22:27.806Z,13.35
2023-04-23T01:24:54.758Z,11.77
2023-04-23T01:27:22.384Z,13.73
2023-04-23T01:29:49.442Z,13.00
2023-04-23T01:32:16.319Z,10.07
2023-04-23T01:34:43.553Z,11.93
2023-04-23T01:37:10.753Z,12.25
2023-04-23T01:39:37.321Z,11.57
2023-04-23T01:42:04.189Z,10.65
2023-04-23T01:44:30.963Z,11.57
2023-04-23T01:46:57.625Z,11.70
2023-04-23T01:49:24.186Z,10.20
2023-04-23T01:51:50.738Z,10.63
2023-04-23T01:54:17.219Z,11.25
2023-04-23T01:56:43.727Z,12.05
2023-04-23T01:59:10.260Z,11.02
2023-04-23T02:01:44.394Z,11.85
2023-04-23T02:04:12.508Z,12.48
2023-04-23T02:06:39.664Z,12.50
2023-04-23T02:09:06.169Z,11.45
2023-04-23T02:11:32.801Z,12.68
2023-04-23T02:13:59.751Z,13.82
2023-04-23T02:16:26.713Z,11.93
2023-04-23T02:18:53.306Z,13.50
2023-04-23T02:21:19.818Z,12.85
2023-04-23T02:23:46.475Z,12.57
2023-04-23T02:26:13.005Z,11.60
2023-04-23T02:28:39.478Z,11.77
2023-04-23T02:31:06.729Z,11.75
2023-04-23T02:33:33.268Z,11.02
2023-04-23T02:35:59.801Z,11.32
2023-04-23T02:38:26.314Z,11.05
2023-04-23T02:40:52.879Z,10.52
2023-04-23T02:43:19.397Z,10.65
2023-04-23T02:45:45.970Z,11.15
2023-04-23T02:48:12.627Z,10.70
2023-04-23T02:50:39.308Z,9.43
2023-04-23T02:53:05.803Z,10.80
2023-04-23T02:55:32.355Z,9.50
2023-04-23T02:57:59.367Z,11.15
2023-04-23T03:00:26.408Z,9.68
2023-04-23T03:02:53.174Z,9.18
2023-04-23T03:05:19.897Z,8.65
2023-04-23T03:07:46.363Z,10.18
2023-04-23T03:10:12.925Z,10.40
2023-04-23T03:12:39.547Z,9.48
2023-04-23T03:15:06.364Z,9.88
2023-04-23T03:17:33.044Z,9.90
2023-04-23T03:19:59.647Z,9.05
2023-04-23T03:22:26.205Z,9.90
2023-04-23T03:24:52.723Z,8.60
2023-04-23T03:27:19.227Z,9.77
2023-04-23T03:29:46.455Z,9.82
2023-04-23T03:32:12.943Z,8.85
2023-04-23T03:34:39.728Z,10.60
2023-04-23T03:37:06.502Z,9.35
2023-04-23T03:39:33.021Z,9.73
2023-04-23T03:41:59.505Z,8.30
2023-04-23T03:44:25.982Z,8.20
2023-04-23T03:46:52.606Z,8.75
2023-04-23T03:49:19.176Z,9.07
2023-04-23T03:51:45.722Z,7.65
2023-04-23T03:54:12.220Z,9.30
2023-04-23T03:56:38.748Z,9.00
2023-04-23T03:59:05.268Z,8.45
2023-04-23T04:01:33.040Z,8.57
2023-04-23T04:03:59.813Z,7.57
2023-04-23T04:06:26.574Z,8.57
2023-04-23T04:08:53.094Z,9.10
2023-04-23T04:11:19.630Z,9.50
2023-04-23T04:13:46.115Z,10.13
2023-04-23T04:16:12.626Z,10.20
2023-04-23T04:18:39.555Z,8.52
2023-04-23T04:21:06.074Z,9.13
2023-04-23T04:23:33.643Z,9.95
2023-04-23T04:26:00.658Z,10.88
2023-04-23T04:28:27.537Z,8.75
2023-04-23T04:30:54.268Z,10.27
2023-04-23T04:33:21.143Z,9.40
2023-04-23T04:35:49.753Z,9.65
2023-04-23T04:38:16.285Z,9.52
2023-04-23T04:40:42.859Z,10.68
2023-04-23T04:43:10.548Z,9.27
2023-04-23T04:45:37.102Z,10.10
2023-04-23T04:48:03.654Z,9.98
2023-04-23T04:50:30.249Z,10.10
2023-04-23T04:52:56.732Z,11.43
2023-04-23T04:55:23.311Z,10.35
2023-04-23T04:57:49.831Z,11.45
2023-04-23T05:00:21.134Z,11.32
2023-04-23T05:02:47.978Z,10.10
2023-04-23T05:05:15.108Z,11.05
2023-04-23T05:07:41.577Z,12.48
2023-04-23T05:10:08.363Z,12.48
2023-04-23T05:12:34.865Z,11.25
2023-04-23T05:15:01.474Z,10.88
2023-04-23T05:17:28.026Z,11.32
2023-04-23T05:19:54.667Z,12.48
2023-04-23T05:22:21.351Z,10.93
2023-04-23T05:24:47.873Z,11.32
2023-04-23T05:27:14.409Z,9.98
2023-04-23T05:29:41.322Z,10.27
2023-04-23T05:32:07.922Z,9.57
2023-04-23T05:34:34.499Z,10.32
2023-04-23T05:37:02.158Z,9.25
2023-04-23T05:39:28.648Z,8.75
2023-04-23T05:41:55.207Z,8.95
2023-04-23T05:44:21.732Z,8.85
2023-04-23T05:46:48.328Z,8.85
2023-04-23T05:49:14.839Z,8.35
2023-04-23T05:51:41.326Z,7.95
2023-04-23T05:54:07.825Z,5.93
2023-04-23T05:56:34.377Z,7.25
2023-04-23T05:59:00.869Z,6.30
2023-04-23T06:01:27.357Z,7.05
2023-04-23T06:03:54.116Z,5.95
2023-04-23T06:06:20.810Z,5.57
2023-04-23T06:08:47.473Z,5.72
2023-04-23T06:11:14.005Z,6.32
2023-04-23T06:13:43.657Z,6.07
2023-04-23T06:16:10.502Z,5.93
2023-04-23T06:18:37.930Z,6.05
2023-04-23T06:21:04.678Z,5.88
2023-04-23T06:23:31.438Z,6.45
2023-04-23T06:25:58.090Z,6.68
2023-04-23T06:28:25.009Z,6.40
2023-04-23T06:30:51.845Z,7.22
2023-04-23T06:33:18.494Z,6.05
2023-04-23T06:35:46.839Z,7.43
2023-04-23T06:38:13.818Z,6.95
2023-04-23T06:40:40.490Z,7.18
2023-04-23T06:43:08.093Z,8.70
2023-04-23T06:45:35.299Z,6.82
2023-04-23T06:48:01.843Z,8.25
2023-04-23T06:50:28.421Z,7.30
2023-04-23T06:52:56.434Z,7.25
2023-04-23T06:55:26.324Z,7.82
2023-04-23T06:57:53.273Z,8.48
2023-04-23T07:00:19.980Z,7.68
2023-04-23T07:02:47.306Z,9.98
2023-04-23T07:05:14.061Z,10.07
2023-04-23T07:07:43.492Z,9.25
2023-04-23T07:10:12.052Z,9.80
2023-04-23T07:12:39.238Z,9.10
2023-04-23T07:15:06.977Z,11.32
2023-04-23T07:17:33.584Z,10.48
2023-04-23T07:22:27.348Z,13.73
2023-04-23T07:24:55.336Z,13.07
2023-04-23T07:27:21.891Z,17.10
2023-04-23T07:29:48.411Z,13.27
2023-04-23T07:32:15.029Z,14.10
2023-04-23T07:34:41.866Z,13.93
2023-04-23T07:37:08.595Z,12.88
2023-04-23T07:39:35.299Z,12.95
2023-04-23T07:42:04.693Z,14.20
2023-04-23T07:44:31.557Z,14.00
2023-04-23T07:46:58.366Z,13.52
2023-04-23T07:49:25.622Z,16.20
2023-04-23T07:51:52.137Z,15.55
2023-04-23T07:54:18.663Z,15.80
2023-04-23T07:56:45.152Z,16.33
2023-04-23T07:59:11.745Z,17.23
2023-04-23T08:01:38.300Z,17.48
2023-04-23T08:04:05.006Z,17.45
2023-04-23T08:06:33.676Z,17.30
2023-04-23T08:09:00.410Z,14.45
2023-04-23T08:11:29.650Z,12.90
2023-04-23T08:13:56.149Z,16.27
2023-04-23T08:16:22.859Z,14.98
2023-04-23T08:19:01.755Z,17.48
2023-04-23T08:21:32.640Z,19.38
2023-04-23T08:23:59.363Z,17.67
2023-04-23T08:26:26.081Z,13.85
2023-04-23T08:28:52.698Z,15.73
2023-04-23T08:31:26.582Z,15.40
2023-04-23T08:33:54.010Z,15.35
2023-04-23T08:36:20.644Z,16.33
2023-04-23T08:38:47.177Z,14.07
2023-04-23T08:41:14.612Z,16.02
2023-04-23T08:44:01.401Z,15.13
2023-04-23T08:46:29.243Z,14.18
2023-04-23T08:48:56.252Z,16.08
2023-04-23T08:51:25.459Z,17.23
2023-04-23T08:53:56.397Z,15.65
2023-04-23T08:56:23.969Z,15.02
2023-04-23T08:58:50.692Z,12.48
2023-04-23T09:01:17.766Z,15.73
2023-04-23T09:03:44.410Z,11.45
2023-04-23T09:06:11.095Z,11.65
2023-04-23T09:08:38.307Z,12.90
2023-04-23T09:11:05.090Z,11.13
2023-04-23T09:13:32.142Z,11.63
2023-04-23T09:15:58.704Z,8.48
2023-04-23T09:18:25.202Z,8.45
2023-04-23T09:20:53.378Z,8.10
2023-04-23T09:23:21.782Z,8.35
2023-04-23T09:25:48.274Z,7.60
2023-04-23T09:28:15.545Z,6.85
2023-04-23T09:30:45.714Z,7.15
2023-04-23T09:33:12.785Z,7.55
2023-04-23T09:35:40.823Z,7.93
2023-04-23T09:38:08.159Z,6.65
2023-04-23T09:40:34.920Z,5.78
2023-04-23T09:43:03.626Z,4.85
2023-04-23T09:45:30.391Z,5.22
2023-04-23T09:48:01.352Z,5.20
2023-04-23T09:50:33.921Z,5.90
2023-04-23T09:53:00.555Z,7.70
2023-04-23T09:55:31.772Z,6.65
2023-04-23T09:57:58.434Z,7.00
2023-04-23T10:00:29.443Z,7.10
2023-04-23T10:02:56.176Z,8.48
2023-04-23T10:05:25.920Z,8.15
2023-04-23T10:07:57.609Z,7.95
2023-04-23T10:10:25.388Z,7.63
2023-04-23T10:12:55.544Z,7.70
2023-04-23T10:15:23.668Z,7.35
2023-04-23T10:17:51.381Z,8.10
2023-04-23T10:20:19.338Z,8.75
2023-04-23T10:22:46.696Z,8.45
2023-04-23T10:25:13.362Z,8.65
2023-04-23T10:27:53.144Z,8.15
2023-04-23T10:30:20.729Z,5.80
2023-04-23T10:32:48.485Z,5.25
2023-04-23T10:35:15.153Z,4.60
2023-04-23T10:37:42.196Z,4.97
2023-04-23T10:40:12.474Z,5.18
2023-04-23T10:42:39.709Z,5.10
2023-04-23T10:45:23.305Z,6.10
2023-04-23T10:47:53.082Z,4.72
2023-04-23T10:50:20.372Z,4.88
2023-04-23T10:52:53.464Z,4.63
2023-04-23T10:55:24.203Z,5.93
2023-04-23T10:58:01.501Z,5.55
2023-04-23T11:00:30.493Z,5.60
2023-04-23T11:02:57.481Z,5.10
2023-04-23T11:05:26.008Z,5.05
2023-04-23T11:10:51.237Z,6.07
2023-04-23T11:13:22.492Z,5.35
2023-04-23T11:15:49.056Z,5.00
2023-04-23T11:18:15.611Z,5.55
2023-04-23T11:20:42.288Z,4.70
2023-04-23T11:23:28.780Z,6.35
2023-04-23T11:25:55.461Z,6.90
2023-04-23T11:28:21.990Z,5.75
2023-04-23T11:30:50.793Z,6.07
2023-04-23T11:33:17.415Z,5.82
2023-04-23T11:35:44.128Z,7.28
2023-04-23T11:38:11.203Z,6.20
2023-04-23T11:40:40.496Z,7.35
2023-04-23T11:43:09.639Z,6.40
2023-04-23T11:45:36.591Z,6.18
2023-04-23T11:48:03.250Z,6.18
2023-04-23T11:50:30.915Z,5.95
2023-04-23T11:52:57.496Z,5.70
2023-04-23T11:55:24.130Z,6.85
2023-04-23T11:57:51.759Z,6.82
2023-04-23T12:00:22.770Z,6.57
2023-04-23T12:03:03.018Z,5.70
2023-04-23T12:05:36.841Z,7.00
2023-04-23T12:08:15.175Z,8.27
2023-04-23T12:10:42.350Z,17.63
2023-04-23T12:13:13.440Z,14.98
2023-04-23T12:15:50.290Z,20.40
2023-04-23T12:18:17.132Z,11.75
2023-04-23T12:20:43.810Z,9.93
2023-04-23T12:23:10.795Z,8.77
2023-04-23T12:25:37.529Z,7.13
2023-04-23T12:28:07.064Z,9.25
2023-04-23T12:30:34.657Z,9.07
2023-04-23T12:33:01.769Z,7.35
2023-04-23T12:35:44.907Z,6.43
2023-04-23T12:38:27.402Z,8.10
2023-04-23T12:40:57.965Z,6.22
2023-04-23T12:43:25.049Z,6.40
2023-04-23T12:45:52.269Z,6.25
2023-04-23T12:48:18.903Z,6.15
2023-04-23T12:50:46.234Z,5.40
2023-04-23T12:53:12.850Z,4.43
2023-04-23T12:55:39.737Z,5.60
2023-04-23T12:58:07.026Z,5.00
2023-04-23T13:00:33.662Z,4.80
2023-04-23T13:03:00.426Z,4.97
2023-04-23T13:05:27.078Z,6.75
2023-04-23T13:07:53.751Z,6.38
2023-04-23T13:10:20.277Z,6.25
2023-04-23T13:12:47.077Z,6.13
2023-04-23T13:15:13.584Z,5.63
2023-04-23T13:17:40.211Z,5.75
2023-04-23T13:20:07.429Z,4.72
2023-04-23T13:22:34.059Z,7.35
2023-04-23T13:25:00.718Z,6.65
2023-04-23T13:27:28.341Z,6.78
2023-04-23T13:29:55.330Z,6.57
2023-04-23T13:32:23.761Z,6.78
2023-04-23T13:34:50.344Z,6.20
2023-04-23T13:37:16.943Z,5.30
2023-04-23T13:39:43.879Z,6.35
2023-04-23T13:42:10.621Z,6.03
2023-04-23T13:44:37.160Z,5.75
2023-04-23T13:47:04.085Z,6.85
2023-04-23T13:49:30.676Z,6.55
2023-04-23T13:52:04.433Z,4.50
2023-04-23T13:54:30.952Z,4.35
2023-04-23T13:56:57.621Z,5.38
2023-04-23T13:59:24.874Z,5.72
2023-04-23T14:01:51.442Z,4.00
2023-04-23T14:04:18.793Z,5.22
2023-04-23T14:06:45.516Z,4.65
2023-04-23T14:09:12.194Z,5.55
2023-04-23T14:11:40.602Z,5.55
2023-04-23T14:14:07.698Z,4.28
2023-04-23T14:16:34.777Z,5.15
2023-04-23T14:19:01.378Z,3.50
2023-04-23T14:21:27.994Z,3.53
2023-04-23T14:23:54.471Z,3.33
2023-04-23T14:26:22.819Z,3.80
2023-04-23T14:28:51.459Z,3.60
2023-04-23T14:31:18.008Z,3.75
2023-04-23T14:33:46.052Z,4.00
2023-04-23T14:36:12.619Z,3.25
2023-04-23T14:38:39.100Z,3.15
2023-04-23T14:41:06.017Z,3.53
2023-04-23T14:43:34.121Z,3.42
2023-04-23T14:46:01.714Z,3.30
2023-04-23T14:48:28.368Z,6.03
2023-04-23T14:50:54.969Z,6.50
2023-04-23T14:53:21.652Z,5.30
2023-04-23T14:55:48.276Z,6.13
2023-04-23T14:58:14.807Z,4.43
2023-04-23T15:00:41.367Z,3.00
2023-04-23T15:03:11.061Z,2.65
2023-04-23T15:05:38.278Z,2.55
2023-04-23T15:08:04.891Z,3.92
2023-04-23T15:10:31.602Z,2.75
2023-04-23T15:13:01.260Z,3.47
2023-04-23T15:15:43.659Z,4.78
2023-04-23T15:18:11.713Z,5.68
2023-04-23T15:20:38.303Z,5.07
2023-04-23T15:23:04.983Z,4.10
2023-04-23T15:25:33.327Z,3.30
2023-04-23T15:28:00.912Z,5.18
2023-04-23T15:30:28.001Z,3.47
2023-04-23T15:32:57.823Z,4.25
2023-04-23T15:35:27.741Z,3.97
2023-04-23T15:37:54.360Z,5.13
2023-04-23T15:40:20.983Z,3.00
2023-04-23T15:42:49.530Z,3.42
2023-04-23T15:45:17.038Z,4.53
2023-04-23T15:47:43.658Z,2.95
2023-04-23T15:50:10.841Z,3.38
2023-04-23T15:52:37.825Z,6.07
2023-04-23T15:55:04.935Z,8.70
2023-04-23T15:57:32.081Z,9.48
2023-04-23T15:59:58.786Z,6.05
2023-04-23T16:02:25.531Z,7.20
2023-04-23T16:04:52.239Z,7.53
2023-04-23T16:07:18.791Z,7.13
2023-04-23T16:09:45.395Z,8.27
2023-04-23T16:12:12.806Z,7.38
2023-04-23T16:14:40.343Z,5.18
2023-04-23T16:17:07.114Z,6.55
2023-04-23T16:19:33.906Z,6.57
2023-04-23T16:22:00.448Z,6.38
2023-04-23T16:24:27.002Z,3.53
2023-04-23T16:26:53.916Z,4.05
2023-04-23T16:29:22.777Z,3.70
2023-04-23T16:31:49.765Z,3.78
2023-04-23T16:34:16.323Z,2.75
2023-04-23T16:36:42.984Z,3.25
2023-04-23T16:39:11.717Z,2.88
2023-04-23T16:41:38.446Z,4.95
2023-04-23T16:44:05.111Z,3.10
2023-04-23T16:46:32.089Z,3.10
2023-04-23T16:48:58.913Z,7.32
2023-04-23T16:51:27.012Z,2.83
2023-04-23T16:53:53.847Z,3.00
2023-04-23T16:56:20.876Z,3.78
2023-04-23T16:58:47.507Z,2.45
2023-04-23T17:01:14.282Z,2.25
2023-04-23T17:03:41.114Z,2.85
2023-04-23T17:06:12.244Z,3.22
2023-04-23T17:08:38.990Z,2.92
2023-04-23T17:11:06.980Z,2.70
2023-04-23T17:13:34.336Z,3.47
2023-04-23T17:16:01.551Z,2.80
2023-04-23T17:18:28.320Z,2.72
2023-04-23T17:20:54.858Z,3.38
2023-04-23T17:23:21.425Z,4.80
2023-04-23T17:25:47.965Z,2.75
2023-04-23T17:28:14.588Z,3.50
2023-04-23T17:30:41.142Z,4.10
2023-04-23T17:33:07.661Z,3.80
2023-04-23T17:35:34.212Z,4.22
2023-04-23T17:38:00.716Z,5.22
2023-04-23T17:40:27.277Z,4.05
2023-04-23T17:42:53.773Z,5.72
2023-04-23T17:45:20.338Z,5.18
2023-04-23T17:47:46.975Z,8.60
2023-04-23T17:50:13.547Z,8.13
2023-04-23T17:52:44.268Z,4.93
2023-04-23T17:55:11.177Z,7.68
2023-04-23T17:57:37.722Z,9.27
2023-04-23T18:00:09.779Z,7.60
2023-04-23T18:02:40.401Z,7.72
2023-04-23T18:05:11.114Z,6.80
2023-04-23T18:07:38.456Z,14.75
2023-04-23T18:10:05.966Z,9.80
2023-04-23T18:12:33.111Z,12.32
2023-04-23T18:14:59.899Z,14.70
2023-04-23T18:17:26.647Z,6.10
2023-04-23T18:19:53.602Z,6.35
2023-04-23T18:22:20.433Z,6.03
2023-04-23T18:24:47.236Z,6.78
2023-04-23T18:27:13.778Z,4.90
2023-04-23T18:29:41.535Z,3.92
2023-04-23T18:32:08.384Z,5.40
2023-04-23T18:34:38.811Z,3.65
2023-04-23T18:37:08.624Z,4.78
2023-04-23T18:39:35.156Z,3.63
2023-04-23T18:42:01.979Z,3.80
2023-04-23T18:44:28.593Z,5.00
2023-04-23T18:46:55.319Z,4.07
2023-04-23T18:49:33.696Z,4.45
2023-04-23T18:52:00.371Z,4.60
2023-04-23T18:54:27.033Z,3.08
2023-04-23T18:56:54.054Z,3.25
2023-04-23T18:59:20.526Z,3.38
2023-04-23T19:01:48.277Z,3.38
2023-04-23T19:04:15.341Z,3.45
2023-04-23T19:06:42.137Z,4.07
2023-04-23T19:09:08.748Z,3.38
2023-04-23T19:11:35.499Z,4.25
2023-04-23T19:14:02.103Z,3.97
2023-04-23T19:16:28.649Z,3.58
2023-04-23T19:18:55.349Z,3.67
2023-04-23T19:21:21.906Z,3.47
2023-04-23T19:23:48.468Z,3.08
2023-04-23T19:26:14.992Z,3.47
2023-04-23T19:28:41.521Z,3.17
2023-04-23T19:31:09.456Z,4.68
2023-04-23T19:33:37.140Z,4.43
2023-04-23T19:36:03.722Z,3.38
2023-04-23T19:38:30.319Z,6.85
2023-04-23T19:40:57.102Z,2.78
2023-04-23T19:43:23.716Z,4.85
2023-04-23T19:45:50.291Z,3.38
2023-04-23T19:48:16.872Z,5.85
2023-04-23T19:50:43.381Z,4.43
2023-04-23T19:53:09.898Z,3.83
2023-04-23T19:55:36.425Z,4.32
2023-04-23T19:58:06.562Z,4.05
2023-04-23T20:00:37.579Z,4.15
2023-04-23T20:03:04.626Z,3.50
2023-04-23T20:05:31.503Z,3.80
2023-04-23T20:08:00.260Z,4.43
2023-04-23T20:10:30.548Z,3.30
2023-04-23T20:12:58.928Z,3.53
2023-04-23T20:15:25.882Z,5.35
2023-04-23T20:17:52.987Z,4.88
2023-04-23T20:20:21.643Z,5.43
2023-04-23T20:22:48.491Z,5.35
2023-04-23T20:25:15.057Z,4.57
2023-04-23T20:27:41.737Z,4.88
2023-04-23T20:30:09.978Z,5.50
2023-04-23T20:32:36.928Z,5.32
2023-04-23T20:35:03.521Z,5.28
2023-04-23T20:37:30.100Z,4.50
2023-04-23T20:39:56.645Z,5.20
2023-04-23T20:42:23.301Z,4.60
2023-04-23T20:44:50.918Z,4.80
2023-04-23T20:47:17.918Z,3.35
2023-04-23T20:49:44.677Z,3.38
2023-04-23T20:52:13.513Z,4.55
2023-04-23T20:54:40.067Z,5.05
2023-04-23T20:57:07.027Z,5.45
2023-04-23T20:59:33.635Z,3.28
2023-04-23T21:02:00.171Z,6.13
2023-04-23T21:04:26.788Z,4.97
2023-04-23T21:06:53.331Z,6.40
2023-04-23T21:09:19.872Z,5.68
2023-04-23T21:11:46.421Z,4.55
2023-04-23T21:14:12.928Z,4.28
2023-04-23T21:16:39.600Z,4.72
2023-04-23T21:19:06.166Z,4.35
2023-04-23T21:21:32.909Z,4.78
2023-04-23T21:24:00.815Z,4.43
2023-04-23T21:26:28.315Z,6.90
2023-04-23T21:28:54.906Z,6.90
2023-04-23T21:31:39.487Z,4.53
2023-04-23T21:34:06.076Z,6.13
2023-04-23T21:36:32.733Z,5.80
2023-04-23T21:38:59.306Z,5.38
2023-04-23T21:41:25.859Z,5.10
2023-04-23T21:43:52.398Z,4.70
2023-04-23T21:46:19.219Z,4.75
2023-04-23T21:48:49.346Z,3.85
2023-04-23T21:51:15.824Z,3.10
2023-04-23T21:53:42.339Z,4.30
2023-04-23T21:56:08.925Z,5.43
2023-04-23T21:58:36.170Z,5.20
2023-04-23T22:01:02.754Z,6.30
2023-04-23T22:03:38.136Z,4.47
2023-04-23T22:06:05.578Z,5.70
2023-04-23T22:08:34.035Z,3.70
2023-04-23T22:11:00.720Z,5.50
2023-04-23T22:13:27.236Z,3.45
2023-04-23T22:15:53.816Z,4.03
2023-04-23T22:18:20.646Z,3.65
2023-04-23T22:20:50.798Z,5.78
2023-04-23T22:23:17.338Z,3.90
2023-04-23T22:25:43.849Z,3.80
2023-04-23T22:28:10.669Z,4.10
2023-04-23T22:30:37.255Z,3.80
